Terminal Aerodrome Forecast
Issued by NWS Mt. Holly, NJ

Home | Current Version | Previous Version | Text Only | Print | Product List | Glossary On
Versions: 1 2 3 4 5 6 7 8 9 10 11 12
000
FTUS41 KPHI 311720
TAFRDG
TAF
KRDG 311720Z 3118/0118 26006KT P6SM VCSH FEW035 BKN200
     FM312000 26008G15KT P6SM VCSH SCT035 BKN200
     FM312300 25005KT P6SM SCT050
     FM010300 00000KT P6SM SCT250
     FM011300 34003KT P6SM SKC=

USA.gov is the U.S. government's official web portal to all federal, state and local government web resources and services.